createdAt,value
2023-02-15T00:00:27.591Z,86.70
2023-02-15T00:02:53.953Z,86.50
2023-02-15T00:05:20.315Z,86.55
2023-02-15T00:07:46.612Z,85.66
2023-02-15T00:10:13.017Z,85.56
2023-02-15T00:12:39.332Z,85.06
2023-02-15T00:15:05.743Z,85.21
2023-02-15T00:17:32.120Z,85.36
2023-02-15T00:19:58.427Z,84.98
2023-02-15T00:22:24.839Z,85.61
2023-02-15T00:24:51.188Z,85.23
2023-02-15T00:27:17.488Z,85.05
2023-02-15T00:29:43.807Z,85.48
2023-02-15T00:32:10.115Z,85.40
2023-02-15T00:34:36.534Z,85.22
2023-02-15T00:37:02.919Z,85.50
2023-02-15T00:39:29.327Z,85.15
2023-02-15T00:41:55.659Z,85.13
2023-02-15T00:44:22.151Z,85.96
2023-02-15T00:46:48.519Z,85.53
2023-02-15T00:49:14.829Z,85.72
2023-02-15T00:51:41.225Z,85.75
2023-02-15T00:54:07.821Z,86.09
2023-02-15T00:56:34.259Z,85.56
2023-02-15T00:59:00.692Z,86.04
2023-02-15T01:01:27.247Z,86.21
2023-02-15T01:03:53.603Z,85.13
2023-02-15T01:06:19.958Z,84.69
2023-02-15T01:08:47.069Z,84.91
2023-02-15T01:11:16.217Z,84.85
2023-02-15T01:13:42.821Z,85.02
2023-02-15T01:16:09.725Z,85.37
2023-02-15T01:18:36.474Z,84.26
2023-02-15T01:21:14.162Z,84.71
2023-02-15T01:23:41.689Z,84.62
2023-02-15T01:26:08.042Z,84.13
2023-02-15T01:28:34.365Z,83.92
2023-02-15T01:31:09.048Z,84.44
2023-02-15T01:33:36.560Z,84.61
2023-02-15T01:36:04.073Z,84.62
2023-02-15T01:38:30.571Z,84.20
2023-02-15T01:40:57.168Z,84.86
2023-02-15T01:43:40.692Z,85.06
2023-02-15T01:46:09.349Z,84.53
2023-02-15T01:48:42.082Z,84.55
2023-02-15T01:51:09.170Z,84.57
2023-02-15T01:53:44.547Z,84.22
2023-02-15T01:56:18.302Z,84.11
2023-02-15T01:58:45.558Z,84.21
2023-02-15T02:01:12.119Z,84.42
2023-02-15T02:03:53.105Z,84.38
2023-02-15T02:06:21.469Z,84.58
2023-02-15T02:08:49.102Z,84.88
2023-02-15T02:11:16.020Z,84.95
2023-02-15T02:13:44.371Z,84.57
2023-02-15T02:16:39.698Z,84.58
2023-02-15T02:19:33.928Z,84.40
2023-02-15T02:22:12.916Z,85.39
2023-02-15T02:24:51.554Z,84.88
2023-02-15T02:27:43.728Z,85.17
2023-02-15T02:30:34.782Z,84.89
2023-02-15T02:33:27.257Z,85.43
2023-02-15T02:36:08.594Z,85.53
2023-02-15T02:38:50.457Z,86.00
2023-02-15T02:41:41.715Z,85.73
2023-02-15T02:44:20.089Z,85.63
2023-02-15T02:46:54.727Z,85.34
2023-02-15T02:49:39.402Z,85.45
2023-02-15T02:52:27.606Z,85.13
2023-02-15T02:54:56.595Z,85.54
2023-02-15T02:57:25.016Z,85.80
2023-02-15T02:59:53.641Z,84.83
2023-02-15T03:02:27.676Z,85.03
2023-02-15T03:05:02.255Z,84.84
2023-02-15T03:07:30.274Z,84.91
2023-02-15T03:09:59.688Z,84.46
2023-02-15T03:12:35.382Z,85.07
2023-02-15T03:15:11.625Z,85.27
2023-02-15T03:17:43.141Z,85.17
2023-02-15T03:20:22.530Z,84.73
2023-02-15T03:22:54.157Z,84.91
2023-02-15T03:25:32.336Z,84.09
2023-02-15T03:28:10.297Z,84.03
2023-02-15T03:30:40.304Z,84.36
2023-02-15T03:33:08.608Z,84.39
2023-02-15T03:35:44.843Z,84.72
2023-02-15T03:38:18.664Z,84.49
2023-02-15T03:40:47.814Z,85.03
2023-02-15T03:43:29.106Z,84.43
2023-02-15T03:46:01.217Z,84.40
2023-02-15T03:48:32.441Z,84.04
2023-02-15T03:51:04.527Z,84.39
2023-02-15T03:53:31.240Z,84.53
2023-02-15T03:55:57.640Z,84.34
2023-02-15T03:58:23.980Z,84.49
2023-02-15T04:00:58.242Z,84.41
2023-02-15T04:03:35.052Z,84.93
2023-02-15T04:06:03.331Z,84.15
2023-02-15T04:08:29.897Z,83.90
2023-02-15T04:10:56.358Z,84.51
2023-02-15T04:13:25.650Z,84.30
2023-02-15T04:15:54.569Z,84.22
2023-02-15T04:18:20.965Z,83.83
2023-02-15T04:20:47.462Z,83.88
2023-02-15T04:23:13.935Z,84.30
2023-02-15T04:25:40.241Z,84.35
2023-02-15T04:28:06.721Z,83.84
2023-02-15T04:30:33.023Z,84.14
2023-02-15T04:32:59.368Z,83.92
2023-02-15T04:35:25.705Z,83.89
2023-02-15T04:37:51.989Z,84.12
2023-02-15T04:40:19.636Z,83.56
2023-02-15T04:42:48.511Z,84.21
2023-02-15T04:45:14.823Z,84.27
2023-02-15T04:47:42.041Z,84.33
2023-02-15T04:50:08.653Z,84.57
2023-02-15T04:52:34.971Z,84.30
2023-02-15T04:55:01.361Z,84.37
2023-02-15T04:57:27.671Z,85.42
2023-02-15T04:59:54.104Z,85.36
2023-02-15T05:02:20.493Z,85.16
2023-02-15T05:04:46.801Z,84.31
2023-02-15T05:07:13.217Z,84.54
2023-02-15T05:09:39.529Z,85.00
2023-02-15T05:12:06.160Z,84.47
2023-02-15T05:14:32.450Z,85.47
2023-02-15T05:16:58.756Z,85.72
2023-02-15T05:19:25.157Z,85.06
2023-02-15T05:21:51.459Z,85.24
2023-02-15T05:24:17.858Z,84.33
2023-02-15T05:26:44.172Z,84.43
2023-02-15T05:29:11.310Z,84.67
2023-02-15T05:31:38.168Z,84.57
2023-02-15T05:34:04.578Z,84.45
2023-02-15T05:36:30.875Z,84.46
2023-02-15T05:38:57.213Z,84.25
2023-02-15T05:41:23.497Z,84.62
2023-02-15T05:43:49.793Z,84.31
2023-02-15T05:46:16.211Z,84.12
2023-02-15T05:48:42.644Z,84.01
2023-02-15T05:51:13.326Z,83.43
2023-02-15T05:53:40.690Z,83.77
2023-02-15T05:56:09.395Z,83.66
2023-02-15T05:58:38.893Z,83.53
2023-02-15T06:01:14.149Z,82.99
2023-02-15T06:03:41.199Z,83.71
2023-02-15T06:06:08.240Z,83.43
2023-02-15T06:08:36.104Z,83.65
2023-02-15T06:11:02.518Z,83.77
2023-02-15T06:13:29.126Z,83.93
2023-02-15T06:15:55.439Z,84.89
2023-02-15T06:18:21.911Z,85.14
2023-02-15T06:20:49.047Z,84.88
2023-02-15T06:23:15.910Z,85.46
2023-02-15T06:25:42.417Z,85.47
2023-02-15T06:28:08.836Z,85.74
2023-02-15T06:30:35.131Z,85.94
2023-02-15T06:33:01.459Z,85.65
2023-02-15T06:35:28.233Z,85.02
2023-02-15T06:37:54.544Z,84.32
2023-02-15T06:40:21.001Z,84.93
2023-02-15T06:42:47.320Z,84.40
2023-02-15T06:45:14.231Z,84.39
2023-02-15T06:47:40.546Z,84.11
2023-02-15T06:50:08.032Z,84.44
2023-02-15T06:52:34.797Z,84.25
2023-02-15T06:55:01.235Z,85.07
2023-02-15T06:57:27.547Z,84.15
2023-02-15T06:59:53.847Z,83.76
2023-02-15T07:02:20.236Z,82.58
2023-02-15T07:04:46.671Z,82.35
2023-02-15T07:07:14.056Z,82.62
2023-02-15T07:09:40.601Z,82.26
2023-02-15T07:12:07.523Z,82.85
2023-02-15T07:14:33.845Z,82.52
2023-02-15T07:17:00.139Z,82.09
2023-02-15T07:19:26.472Z,82.36
2023-02-15T07:21:52.921Z,82.13
2023-02-15T07:24:19.304Z,82.65
2023-02-15T07:26:45.743Z,82.19
2023-02-15T07:29:12.044Z,82.41
2023-02-15T07:31:38.327Z,81.70
2023-02-15T07:34:06.908Z,81.48
2023-02-15T07:36:33.204Z,80.00
2023-02-15T07:38:59.508Z,80.42
2023-02-15T07:41:25.810Z,80.08
2023-02-15T07:43:52.106Z,79.97
2023-02-15T07:46:18.987Z,80.40
2023-02-15T07:48:45.942Z,80.61
2023-02-15T07:51:13.523Z,80.22
2023-02-15T07:53:40.246Z,80.44
2023-02-15T07:56:10.291Z,80.37
2023-02-15T07:58:36.907Z,80.52
2023-02-15T08:01:03.214Z,79.99
2023-02-15T08:03:29.525Z,80.57
2023-02-15T08:06:00.432Z,80.01
2023-02-15T08:08:27.910Z,80.07
2023-02-15T08:10:54.236Z,80.73
2023-02-15T08:13:20.933Z,80.62
2023-02-15T08:15:51.299Z,80.58
2023-02-15T08:18:17.895Z,80.58
2023-02-15T08:20:50.288Z,80.01
2023-02-15T08:23:16.576Z,80.53
2023-02-15T08:25:42.885Z,79.71
2023-02-15T08:28:09.618Z,79.75
2023-02-15T08:30:36.456Z,79.49
2023-02-15T08:33:03.433Z,78.63
2023-02-15T08:35:29.846Z,78.70
2023-02-15T08:37:56.147Z,78.63
2023-02-15T08:40:22.464Z,78.25
2023-02-15T08:42:48.748Z,78.91
2023-02-15T08:45:15.146Z,78.44
2023-02-15T08:47:41.457Z,78.61
2023-02-15T08:50:08.017Z,78.23
2023-02-15T08:52:34.312Z,77.91
2023-02-15T08:55:00.621Z,77.60
2023-02-15T08:57:28.066Z,77.30
2023-02-15T08:59:54.352Z,76.98
2023-02-15T09:02:20.785Z,76.30
2023-02-15T09:04:47.156Z,77.43
2023-02-15T09:07:13.456Z,77.04
2023-02-15T09:09:39.753Z,76.84
2023-02-15T09:12:06.423Z,76.93
2023-02-15T09:14:33.672Z,76.93
2023-02-15T09:17:00.235Z,76.38
2023-02-15T09:19:26.612Z,77.02
2023-02-15T09:21:53.116Z,77.36
2023-02-15T09:24:19.640Z,77.21
2023-02-15T09:26:48.289Z,77.18
2023-02-15T09:29:15.411Z,76.48
2023-02-15T09:31:50.121Z,76.60
2023-02-15T09:34:19.111Z,76.08
2023-02-15T09:36:46.181Z,76.33
2023-02-15T09:39:14.003Z,76.10
2023-02-15T09:41:49.472Z,75.56
2023-02-15T09:44:30.958Z,75.37
2023-02-15T09:47:28.283Z,75.16
2023-02-15T09:50:00.350Z,75.31
2023-02-15T09:52:54.639Z,74.91
2023-02-15T09:55:47.153Z,73.53
2023-02-15T09:58:43.628Z,73.99
2023-02-15T10:01:32.007Z,73.68
2023-02-15T10:04:03.414Z,73.69
2023-02-15T10:06:44.659Z,73.33
2023-02-15T10:09:27.000Z,73.58
2023-02-15T10:12:06.705Z,73.05
2023-02-15T10:14:48.417Z,73.14
2023-02-15T10:17:17.633Z,72.89
2023-02-15T10:20:00.856Z,71.80
2023-02-15T10:23:07.326Z,72.47
2023-02-15T10:25:58.007Z,71.90
2023-02-15T10:28:31.121Z,72.77
2023-02-15T10:31:16.440Z,71.43
2023-02-15T10:33:44.495Z,71.47
2023-02-15T10:36:24.051Z,72.20
2023-02-15T10:38:59.961Z,71.44
2023-02-15T10:41:43.330Z,71.98
2023-02-15T10:44:21.694Z,71.50
2023-02-15T10:47:24.697Z,71.11
2023-02-15T10:50:26.512Z,71.23
2023-02-15T10:53:09.188Z,70.84
2023-02-15T10:55:38.638Z,70.48
2023-02-15T10:58:29.706Z,70.72
2023-02-15T11:01:01.274Z,71.41
2023-02-15T11:03:49.608Z,71.58
2023-02-15T11:06:19.940Z,71.16
2023-02-15T11:08:54.421Z,70.16
2023-02-15T11:11:26.444Z,70.11
2023-02-15T11:13:59.641Z,69.81
2023-02-15T11:16:33.598Z,70.22
2023-02-15T11:19:08.901Z,69.31
2023-02-15T11:21:40.122Z,69.76
2023-02-15T11:24:14.632Z,69.21
2023-02-15T11:26:49.165Z,69.36
2023-02-15T11:29:26.654Z,69.81
2023-02-15T11:32:00.861Z,69.03
2023-02-15T11:34:35.646Z,68.07
2023-02-15T11:37:08.366Z,69.66
2023-02-15T11:39:38.217Z,67.87
2023-02-15T11:42:14.922Z,67.70
2023-02-15T11:44:57.281Z,68.09
2023-02-15T11:47:23.753Z,68.92
2023-02-15T11:49:50.043Z,68.57
2023-02-15T11:52:18.744Z,68.08
2023-02-15T11:54:48.801Z,68.40
2023-02-15T11:57:24.126Z,67.31
2023-02-15T11:59:57.678Z,67.56
2023-02-15T12:02:24.082Z,68.93
2023-02-15T12:05:16.577Z,65.80
2023-02-15T12:07:47.959Z,66.09
2023-02-15T12:10:21.456Z,68.29
2023-02-15T12:12:47.847Z,68.83
2023-02-15T12:15:14.887Z,66.17
2023-02-15T12:17:49.895Z,68.07
2023-02-15T12:20:16.286Z,65.94
2023-02-15T12:22:55.605Z,65.77
2023-02-15T12:25:25.702Z,67.13
2023-02-15T12:27:52.240Z,67.07
2023-02-15T12:30:30.484Z,66.33
2023-02-15T12:33:05.799Z,66.26
2023-02-15T12:35:35.103Z,66.73
2023-02-15T12:38:05.604Z,66.48
2023-02-15T12:40:34.189Z,66.60
2023-02-15T12:43:00.775Z,66.54
2023-02-15T12:45:32.929Z,66.58
2023-02-15T12:48:14.164Z,67.61
2023-02-15T12:50:42.056Z,67.62
2023-02-15T12:53:30.696Z,67.92
2023-02-15T12:55:59.391Z,68.23
2023-02-15T12:58:30.657Z,67.42
2023-02-15T13:01:19.921Z,67.39
2023-02-15T13:04:05.265Z,67.84
2023-02-15T13:06:34.730Z,67.17
2023-02-15T13:09:38.095Z,67.28
2023-02-15T13:12:25.729Z,67.24
2023-02-15T13:14:54.641Z,67.58
2023-02-15T13:17:26.821Z,67.08
2023-02-15T13:19:54.346Z,67.26
2023-02-15T13:22:25.272Z,66.78
2023-02-15T13:24:56.649Z,65.54
2023-02-15T13:27:28.164Z,66.08
2023-02-15T13:29:58.209Z,66.02
2023-02-15T13:32:38.247Z,64.84
2023-02-15T13:35:06.665Z,65.40
2023-02-15T13:37:57.683Z,64.74
2023-02-15T13:40:31.899Z,65.37
2023-02-15T13:43:20.254Z,66.18
2023-02-15T13:46:14.489Z,65.58
2023-02-15T13:49:01.236Z,66.56
2023-02-15T13:51:47.077Z,65.92
2023-02-15T13:54:54.597Z,65.51
2023-02-15T13:57:58.110Z,65.08
2023-02-15T14:00:42.728Z,65.55
2023-02-15T14:03:33.546Z,65.71
2023-02-15T14:06:24.492Z,65.34
2023-02-15T14:08:59.003Z,65.89
2023-02-15T14:11:48.161Z,65.69
2023-02-15T14:14:30.802Z,65.62
2023-02-15T14:17:31.375Z,65.33
2023-02-15T14:20:05.418Z,65.55
2023-02-15T14:22:45.473Z,65.58
2023-02-15T14:25:24.582Z,65.65
2023-02-15T14:28:06.250Z,65.36
2023-02-15T14:30:39.651Z,65.57
2023-02-15T14:33:22.597Z,65.47
2023-02-15T14:35:49.387Z,64.47
2023-02-15T14:38:37.376Z,65.36
2023-02-15T14:41:19.058Z,65.29
2023-02-15T14:43:57.534Z,65.17
2023-02-15T14:46:23.860Z,65.66
2023-02-15T14:48:56.246Z,65.69
2023-02-15T14:51:40.832Z,64.09
2023-02-15T14:54:31.259Z,65.40
2023-02-15T14:57:03.778Z,65.59
2023-02-15T14:59:36.084Z,65.04
2023-02-15T15:02:08.476Z,64.79
2023-02-15T15:04:53.926Z,65.90
2023-02-15T15:07:24.315Z,65.51
2023-02-15T15:10:15.274Z,65.71
2023-02-15T15:12:41.693Z,66.17
2023-02-15T15:15:13.497Z,66.69
2023-02-15T15:17:39.781Z,66.18
2023-02-15T15:20:13.481Z,66.27
2023-02-15T15:22:40.755Z,66.82
2023-02-15T15:25:10.132Z,66.61
2023-02-15T15:27:43.951Z,66.54
2023-02-15T15:30:30.293Z,67.32
2023-02-15T15:32:56.673Z,67.94
2023-02-15T15:35:53.463Z,68.07
2023-02-15T15:38:46.490Z,67.82
2023-02-15T15:41:42.624Z,68.55
2023-02-15T15:44:48.596Z,68.06
2023-02-15T15:47:29.591Z,67.93
2023-02-15T15:49:58.434Z,68.85
2023-02-15T15:52:25.450Z,68.31
2023-02-15T15:54:58.083Z,68.77
2023-02-15T15:57:35.874Z,69.47
2023-02-15T16:00:03.594Z,69.10
2023-02-15T16:02:30.087Z,69.27
2023-02-15T16:05:07.692Z,70.40
2023-02-15T16:07:34.051Z,70.24
2023-02-15T16:10:20.245Z,70.25
2023-02-15T16:12:48.621Z,71.10
2023-02-15T16:15:18.121Z,71.48
2023-02-15T16:17:47.730Z,72.30
2023-02-15T16:20:24.315Z,72.61
2023-02-15T16:23:16.023Z,73.47
2023-02-15T16:25:51.138Z,73.43
2023-02-15T16:28:17.850Z,73.47
2023-02-15T16:30:44.181Z,74.44
2023-02-15T16:33:17.899Z,75.17
2023-02-15T16:35:56.192Z,75.99
2023-02-15T16:38:45.499Z,76.01
2023-02-15T16:41:18.350Z,75.58
2023-02-15T16:43:48.549Z,76.08
2023-02-15T16:46:21.935Z,76.88
2023-02-15T16:48:52.317Z,76.41
2023-02-15T16:51:27.563Z,77.46
2023-02-15T16:53:56.575Z,77.88
2023-02-15T16:56:28.425Z,78.30
2023-02-15T16:58:56.349Z,77.55
2023-02-15T17:01:26.510Z,77.79
2023-02-15T17:04:31.323Z,78.45
2023-02-15T17:07:00.913Z,77.67
2023-02-15T17:09:27.339Z,78.73
2023-02-15T17:11:53.731Z,79.94
2023-02-15T17:14:22.591Z,79.98
2023-02-15T17:16:53.353Z,80.36
2023-02-15T17:19:30.220Z,80.27
2023-02-15T17:22:03.042Z,78.70
2023-02-15T17:24:33.823Z,81.02
2023-02-15T17:27:04.625Z,80.72
2023-02-15T17:29:37.859Z,80.97
2023-02-15T17:32:06.116Z,81.73
2023-02-15T17:34:41.780Z,82.43
2023-02-15T17:37:42.161Z,82.57
2023-02-15T17:40:22.586Z,81.55
2023-02-15T17:42:48.919Z,81.82
2023-02-15T17:45:16.120Z,82.36
2023-02-15T17:47:42.836Z,81.95
2023-02-15T17:50:19.840Z,82.55
2023-02-15T17:52:46.310Z,82.54
2023-02-15T17:55:15.840Z,83.03
2023-02-15T17:57:42.254Z,83.83
2023-02-15T18:00:13.655Z,82.84
2023-02-15T18:02:40.530Z,82.34
2023-02-15T18:05:13.944Z,82.65
2023-02-15T18:07:40.701Z,82.18
2023-02-15T18:10:19.082Z,83.34
2023-02-15T18:12:45.391Z,83.08
2023-02-15T18:15:13.028Z,84.57
2023-02-15T18:17:39.431Z,84.91
2023-02-15T18:20:19.964Z,85.31
2023-02-15T18:22:46.815Z,85.69
2023-02-15T18:25:18.997Z,85.53
2023-02-15T18:27:46.236Z,85.32
2023-02-15T18:30:20.660Z,85.94
2023-02-15T18:32:48.561Z,85.71
2023-02-15T18:35:16.051Z,86.14
2023-02-15T18:37:42.623Z,85.87
2023-02-15T18:40:17.582Z,85.94
2023-02-15T18:42:44.297Z,85.63
2023-02-15T18:45:25.185Z,85.82
2023-02-15T18:47:51.923Z,85.21
2023-02-15T18:50:20.055Z,85.15
2023-02-15T18:52:48.059Z,85.23
2023-02-15T18:55:32.412Z,84.71
2023-02-15T18:57:58.867Z,84.77
2023-02-15T19:00:30.398Z,84.73
2023-02-15T19:02:57.057Z,85.40
2023-02-15T19:05:24.429Z,85.66
2023-02-15T19:07:51.499Z,85.39
2023-02-15T19:10:30.193Z,85.71
2023-02-15T19:12:56.583Z,85.56
2023-02-15T19:15:25.980Z,85.61
2023-02-15T19:17:53.873Z,85.44
2023-02-15T19:20:24.477Z,84.89
2023-02-15T19:22:53.175Z,84.28
2023-02-15T19:25:23.585Z,84.45
2023-02-15T19:27:50.617Z,84.30
2023-02-15T19:30:24.430Z,83.90
2023-02-15T19:32:50.860Z,83.45
2023-02-15T19:35:20.013Z,82.97
2023-02-15T19:37:50.028Z,82.71
2023-02-15T19:40:20.230Z,83.29
2023-02-15T19:42:46.995Z,83.59
2023-02-15T19:45:14.953Z,83.96
2023-02-15T19:47:41.396Z,85.01
2023-02-15T19:50:13.347Z,84.25
2023-02-15T19:52:40.263Z,83.96
2023-02-15T19:55:06.737Z,83.95
2023-02-15T19:57:33.014Z,83.99
2023-02-15T20:00:04.838Z,84.16
2023-02-15T20:02:35.842Z,84.50
2023-02-15T20:05:02.226Z,85.28
2023-02-15T20:07:28.783Z,85.09
2023-02-15T20:09:55.489Z,85.58
2023-02-15T20:12:24.692Z,85.26
2023-02-15T20:14:51.920Z,85.68
2023-02-15T20:17:18.350Z,85.61
2023-02-15T20:19:44.726Z,85.65
2023-02-15T20:22:26.830Z,85.64
2023-02-15T20:24:53.894Z,86.18
2023-02-15T20:27:20.317Z,86.12
2023-02-15T20:29:46.738Z,85.07
2023-02-15T20:32:13.188Z,85.12
2023-02-15T20:34:39.613Z,85.30
2023-02-15T20:37:06.044Z,84.53
2023-02-15T20:39:32.368Z,84.39
2023-02-15T20:41:58.693Z,84.42
2023-02-15T20:44:31.459Z,84.41
2023-02-15T20:46:59.023Z,84.18
2023-02-15T20:49:27.354Z,83.82
2023-02-15T20:51:54.997Z,83.63
2023-02-15T20:54:23.944Z,84.09
2023-02-15T20:56:50.425Z,84.25
2023-02-15T20:59:23.664Z,83.65
2023-02-15T21:01:52.162Z,84.72
2023-02-15T21:04:22.842Z,84.49
2023-02-15T21:06:49.411Z,84.42
2023-02-15T21:09:16.988Z,85.04
2023-02-15T21:11:44.778Z,84.67
2023-02-15T21:14:17.599Z,85.67
2023-02-15T21:16:45.274Z,85.21
2023-02-15T21:19:13.724Z,85.05
2023-02-15T21:21:40.332Z,85.27
2023-02-15T21:24:09.556Z,85.68
2023-02-15T21:26:43.857Z,85.21
2023-02-15T21:29:21.932Z,85.78
2023-02-15T21:31:48.707Z,85.54
2023-02-15T21:34:15.705Z,85.22
2023-02-15T21:36:43.314Z,85.14
2023-02-15T21:39:23.943Z,85.45
2023-02-15T21:41:52.875Z,84.99
2023-02-15T21:44:21.807Z,84.55
2023-02-15T21:46:48.252Z,84.12
2023-02-15T21:49:14.583Z,84.06
2023-02-15T21:51:40.999Z,83.65
2023-02-15T21:54:12.413Z,83.81
2023-02-15T21:56:38.855Z,84.26
2023-02-15T21:59:13.402Z,84.17
2023-02-15T22:01:42.553Z,84.44
2023-02-15T22:04:14.663Z,83.85
2023-02-15T22:06:41.643Z,84.34
2023-02-15T22:09:17.595Z,84.34
2023-02-15T22:11:44.403Z,83.89
2023-02-15T22:14:35.487Z,83.82
2023-02-15T22:17:03.624Z,83.94
2023-02-15T22:19:30.143Z,84.01
2023-02-15T22:21:56.507Z,83.51
2023-02-15T22:24:22.813Z,83.49
2023-02-15T22:26:49.108Z,83.52
2023-02-15T22:29:18.399Z,83.29
2023-02-15T22:31:44.994Z,83.39
2023-02-15T22:34:37.765Z,82.84
2023-02-15T22:37:04.078Z,83.41
2023-02-15T22:39:30.354Z,82.91
2023-02-15T22:41:56.991Z,83.11
2023-02-15T22:44:32.134Z,83.47
2023-02-15T22:47:02.184Z,83.93
2023-02-15T22:49:28.523Z,83.76
2023-02-15T22:51:54.821Z,83.75
2023-02-15T22:54:21.113Z,83.91
2023-02-15T22:56:50.968Z,83.16
2023-02-15T22:59:24.190Z,83.45
2023-02-15T23:01:50.659Z,83.19
2023-02-15T23:04:19.126Z,82.91
2023-02-15T23:06:46.067Z,83.34
2023-02-15T23:09:12.813Z,83.05
2023-02-15T23:11:39.692Z,83.42
2023-02-15T23:14:06.476Z,83.93
2023-02-15T23:16:32.831Z,83.69
2023-02-15T23:18:59.281Z,83.62
2023-02-15T23:21:29.659Z,83.48
2023-02-15T23:24:12.803Z,83.11
2023-02-15T23:26:39.135Z,83.27
2023-02-15T23:29:11.906Z,83.03
2023-02-15T23:31:42.120Z,83.52
2023-02-15T23:34:29.203Z,83.80
2023-02-15T23:36:56.759Z,83.51
2023-02-15T23:39:25.863Z,83.94
2023-02-15T23:41:52.452Z,83.73
2023-02-15T23:44:19.377Z,83.66
2023-02-15T23:46:47.281Z,83.98
2023-02-15T23:49:15.584Z,84.06
2023-02-15T23:51:47.184Z,83.72
2023-02-15T23:54:15.869Z,83.56
2023-02-15T23:56:45.097Z,82.87
2023-02-15T23:59:17.943Z,83.14
